Time;durP1;ratioP1;P1;durP2;ratioP2;P2;SDS_P1;SDS_P2;PMS_P1;PMS_P2;Temp;Humidity;BMP_temperature;BMP_pressure;BME280_temperature;BME280_humidity;BME280_pressure;Samples;Min_cycle;Max_cycle;Signal;HPM_P1;HPM_P2
2022/01/21 00:00:05;;;;;;;21.13;1.17;;;1.00;99.90;;;;;;5048627;28;20036;-60
2022/01/21 00:02:31;;;;;;;10.45;1.45;;;1.00;99.90;;;;;;5049835;28;20047;-61
2022/01/21 00:04:57;;;;;;;13.10;1.43;;;1.00;99.90;;;;;;5049385;28;20049;-60
2022/01/21 00:07:22;;;;;;;7.93;1.50;;;1.00;99.90;;;;;;5055544;28;20037;-60
2022/01/21 00:09:49;;;;;;;9.63;1.27;;;1.00;99.90;;;;;;5052458;28;20094;-60
2022/01/21 00:12:14;;;;;;;13.45;1.83;;;1.00;99.90;;;;;;5048467;28;20097;-60
2022/01/21 00:14:40;;;;;;;14.50;1.67;;;1.00;99.90;;;;;;5054714;28;20101;-59
2022/01/21 00:17:06;;;;;;;15.27;2.13;;;1.00;99.90;;;;;;5053284;28;20032;-60
2022/01/21 00:19:38;;;;;;;14.77;1.57;;;1.00;99.90;;;;;;5049731;28;20037;-62
2022/01/21 00:30:20;;;;;;;10.82;2.70;;;0.90;99.90;;;;;;5048119;28;20049;-60
2022/01/21 00:32:47;;;;;;;15.63;3.03;;;0.90;99.90;;;;;;5048505;28;20555;-59
2022/01/21 00:35:14;;;;;;;14.85;2.47;;;0.90;99.90;;;;;;5048056;28;20052;-59
2022/01/21 00:37:41;;;;;;;11.38;2.08;;;0.90;99.90;;;;;;5031907;28;20045;-58
2022/01/21 00:40:10;;;;;;;17.55;2.85;;;0.90;99.90;;;;;;5047407;28;20132;-60
2022/01/21 00:45:11;;;;;;;24.40;3.35;;;0.80;99.90;;;;;;5049459;28;20055;-59
2022/01/21 00:47:37;;;;;;;24.25;2.45;;;0.80;99.90;;;;;;5049434;28;20037;-59
2022/01/21 00:50:03;;;;;;;14.97;1.60;;;0.80;99.90;;;;;;5049303;28;20126;-59
2022/01/21 00:52:28;;;;;;;12.93;2.25;;;0.80;99.90;;;;;;5049146;28;20037;-59
2022/01/21 00:54:54;;;;;;;19.50;3.33;;;0.90;99.90;;;;;;5049284;28;20106;-59
2022/01/21 00:57:20;;;;;;;13.70;2.00;;;0.90;99.90;;;;;;5049251;28;20037;-60
2022/01/21 00:59:45;;;;;;;17.60;2.00;;;0.90;99.90;;;;;;5047573;28;20036;-59
2022/01/21 01:02:11;;;;;;;18.37;2.23;;;0.90;99.90;;;;;;5049094;28;20052;-59
2022/01/21 01:04:36;;;;;;;22.57;3.27;;;1.00;99.90;;;;;;5049003;28;20059;-59
2022/01/21 01:07:03;;;;;;;19.47;2.50;;;1.00;99.90;;;;;;5048792;28;20626;-60
2022/01/21 01:09:28;;;;;;;16.00;2.38;;;1.10;99.90;;;;;;5048686;28;20049;-59
2022/01/21 01:12:26;;;;;;;18.30;1.83;;;1.20;99.90;;;;;;5049076;28;20039;-60
2022/01/21 01:20:09;;;;;;;13.45;2.20;;;1.40;99.90;;;;;;5048898;28;20041;-60
2022/01/21 01:27:55;;;;;;;11.07;2.22;;;1.50;99.90;;;;;;5048590;28;19921;-60
2022/01/21 01:30:24;;;;;;;18.67;1.47;;;1.50;99.90;;;;;;5048283;28;20101;-58
2022/01/21 01:32:52;;;;;;;10.30;1.65;;;1.50;99.90;;;;;;5048957;28;20090;-59
2022/01/21 01:35:20;;;;;;;17.27;2.60;;;1.60;99.90;;;;;;5047339;28;20041;-59
2022/01/21 01:38:44;;;;;;;17.50;2.83;;;1.60;99.90;;;;;;5048787;28;20465;-60
2022/01/21 01:40:43;;;;;;;15.68;2.72;;;1.50;99.90;;;;;;5040160;28;20109;-60
2022/01/21 01:50:50;;;;;;;11.23;1.67;;;1.60;99.90;;;;;;5054902;28;20040;-60
2022/01/21 01:53:25;;;;;;;14.68;2.75;;;1.70;99.90;;;;;;5072515;28;20051;-60
2022/01/21 01:55:51;;;;;;;9.57;1.48;;;1.70;99.90;;;;;;5072853;28;20064;-60
2022/01/21 01:58:17;;;;;;;19.25;1.42;;;1.70;99.90;;;;;;5072338;28;20036;-60
2022/01/21 02:00:43;;;;;;;10.67;1.40;;;1.70;99.90;;;;;;5073216;28;20545;-59
2022/01/21 02:03:10;;;;;;;14.70;1.20;;;1.70;99.90;;;;;;5072820;28;20068;-60
2022/01/21 02:05:36;;;;;;;8.70;1.42;;;1.80;99.90;;;;;;5072017;28;20120;-60
2022/01/21 02:08:02;;;;;;;16.58;2.13;;;1.70;99.90;;;;;;5072449;28;20155;-60
2022/01/21 02:10:28;;;;;;;10.90;1.42;;;1.70;99.90;;;;;;5072371;28;20067;-60
2022/01/21 02:13:04;;;;;;;11.60;1.27;;;1.80;99.90;;;;;;5072734;28;20529;-60
2022/01/21 02:15:38;;;;;;;13.17;1.63;;;1.80;99.90;;;;;;5072316;28;20129;-60
2022/01/21 02:23:34;;;;;;;11.75;1.25;;;1.80;99.90;;;;;;5069301;28;20052;-59
2022/01/21 02:26:01;;;;;;;7.97;0.80;;;1.80;99.90;;;;;;5051752;28;20041;-60
2022/01/21 02:28:26;;;;;;;6.57;1.50;;;1.80;99.90;;;;;;5052286;28;20098;-60
2022/01/21 02:30:57;;;;;;;11.07;1.00;;;1.80;99.90;;;;;;5051846;28;20033;-60
2022/01/21 02:33:23;;;;;;;7.13;1.48;;;1.80;99.90;;;;;;5052368;28;20433;-59
2022/01/21 02:35:50;;;;;;;;;;;1.90;99.90;;;;;;5050507;28;20596;-60
2022/01/21 02:38:16;;;;;;;14.13;2.20;;;1.90;99.90;;;;;;5051990;28;19962;-60
2022/01/21 02:40:42;;;;;;;11.65;1.23;;;1.80;99.90;;;;;;5051488;28;20040;-60
2022/01/21 02:43:08;;;;;;;;;;;1.90;99.90;;;;;;5052153;28;20553;-60
2022/01/21 02:45:36;;;;;;;10.15;1.08;;;1.90;99.90;;;;;;5051337;28;19920;-60
2022/01/21 02:48:04;;;;;;;10.25;0.88;;;1.90;99.90;;;;;;5051646;28;20043;-60
2022/01/21 02:50:30;;;;;;;8.73;0.75;;;1.80;99.90;;;;;;5051314;28;20037;-60
2022/01/21 02:53:08;;;;;;;8.37;1.43;;;1.90;99.90;;;;;;5051961;28;20041;-59
2022/01/21 02:55:33;;;;;;;10.02;1.35;;;1.90;99.90;;;;;;5051206;28;20048;-60
2022/01/21 02:57:59;;;;;;;6.90;1.23;;;1.80;99.90;;;;;;5051647;28;20398;-59
2022/01/21 03:00:25;;;;;;;7.87;1.07;;;1.80;99.90;;;;;;5051417;28;20044;-58
2022/01/21 03:02:50;;;;;;;6.17;0.87;;;1.80;99.90;;;;;;5050843;28;20083;-60
2022/01/21 03:05:18;;;;;;;14.35;0.90;;;1.80;99.90;;;;;;5051274;28;20237;-59
2022/01/21 03:07:43;;;;;;;5.03;0.75;;;1.80;99.90;;;;;;5051048;28;20041;-59
2022/01/21 03:10:10;;;;;;;8.00;0.50;;;1.80;99.90;;;;;;5051189;28;20098;-60
2022/01/21 03:12:35;;;;;;;5.30;0.95;;;1.90;99.90;;;;;;5051069;28;20125;-59
2022/01/21 03:15:01;;;;;;;10.83;0.63;;;1.80;99.90;;;;;;5051293;28;20112;-60
2022/01/21 03:17:27;;;;;;;18.70;1.90;;;1.90;99.90;;;;;;5051370;28;20037;-60
2022/01/21 03:19:52;;;;;;;3.70;0.97;;;1.90;99.90;;;;;;5051199;28;20128;-59
2022/01/21 03:22:18;;;;;;;9.40;0.93;;;1.90;99.90;;;;;;5049706;28;20037;-59
2022/01/21 03:24:43;;;;;;;9.50;0.70;;;1.90;99.90;;;;;;5038439;28;20418;-59
2022/01/21 03:27:09;;;;;;;5.10;0.73;;;1.90;99.90;;;;;;5030722;28;20196;-59
2022/01/21 03:29:34;;;;;;;10.00;0.83;;;2.00;99.90;;;;;;5031145;28;20473;-60
2022/01/21 03:32:00;;;;;;;8.00;0.60;;;1.90;99.90;;;;;;5031317;28;20076;-60
2022/01/21 03:34:26;;;;;;;11.97;0.67;;;1.90;99.90;;;;;;5031185;28;20038;-57
2022/01/21 03:36:53;;;;;;;10.17;0.63;;;1.90;99.90;;;;;;5030695;28;20037;-58
2022/01/21 03:39:19;;;;;;;9.02;1.15;;;1.90;99.90;;;;;;5030396;28;20045;-60
2022/01/21 03:41:44;;;;;;;6.60;0.67;;;1.90;99.90;;;;;;5031012;28;20041;-59
2022/01/21 03:44:10;;;;;;;2.07;0.30;;;1.90;99.90;;;;;;5029018;28;20485;-59
2022/01/21 03:46:36;;;;;;;2.67;0.30;;;1.90;99.90;;;;;;5029432;28;20033;-59
2022/01/21 03:49:04;;;;;;;5.80;0.50;;;1.90;99.90;;;;;;5030278;28;20419;-59
2022/01/21 03:51:30;;;;;;;7.22;0.90;;;1.90;99.90;;;;;;5030582;28;20407;-58
2022/01/21 03:53:56;;;;;;;7.82;0.50;;;1.90;99.90;;;;;;5033496;28;20037;-60
2022/01/21 03:56:22;;;;;;;15.20;2.30;;;1.90;99.90;;;;;;5036267;28;20037;-59
2022/01/21 03:58:47;;;;;;;8.83;0.60;;;1.80;99.90;;;;;;5035542;28;20104;-60
2022/01/21 04:01:13;;;;;;;11.93;0.93;;;1.90;99.90;;;;;;5030642;28;20065;-60
2022/01/21 04:03:39;;;;;;;7.17;0.70;;;1.80;99.90;;;;;;5030493;28;20037;-60
2022/01/21 04:06:04;;;;;;;15.90;0.70;;;1.80;99.90;;;;;;5029856;28;20037;-59
2022/01/21 04:08:30;;;;;;;8.67;1.63;;;1.80;99.90;;;;;;5030085;28;20291;-60
2022/01/21 04:10:56;;;;;;;7.82;0.70;;;1.80;99.90;;;;;;5029592;28;20091;-60
2022/01/21 04:13:23;;;;;;;9.00;1.00;;;1.80;99.90;;;;;;5029921;28;20514;-58
2022/01/21 04:15:52;;;;;;;10.02;1.00;;;1.80;99.90;;;;;;5028888;28;20041;-60
2022/01/21 04:18:18;;;;;;;9.68;0.70;;;1.80;99.90;;;;;;5030217;28;20065;-59
2022/01/21 04:20:48;;;;;;;8.40;0.80;;;1.80;99.90;;;;;;5029731;28;20116;-60
2022/01/21 04:23:15;;;;;;;9.20;0.98;;;1.80;99.90;;;;;;5029616;28;20410;-58
2022/01/21 04:25:41;;;;;;;12.88;0.90;;;1.80;99.90;;;;;;5029551;28;20310;-60
2022/01/21 04:28:07;;;;;;;14.20;1.27;;;1.80;99.90;;;;;;5028487;28;20116;-59
2022/01/21 04:30:33;;;;;;;6.18;0.98;;;1.80;99.90;;;;;;5029731;28;20292;-59
2022/01/21 04:32:59;;;;;;;10.52;0.70;;;1.80;99.90;;;;;;5030011;28;20037;-60
2022/01/21 04:35:24;;;;;;;9.40;0.70;;;1.80;99.90;;;;;;5028718;28;20168;-59
2022/01/21 04:37:55;;;;;;;6.45;1.25;;;1.80;99.90;;;;;;5028255;28;20490;-58
2022/01/21 04:40:24;;;;;;;10.55;2.53;;;1.80;99.90;;;;;;5028799;28;20116;-59
2022/01/21 04:48:18;;;;;;;7.65;0.52;;;1.80;99.90;;;;;;5028925;28;20081;-59
2022/01/21 04:50:56;;;;;;;10.27;2.20;;;1.80;99.90;;;;;;5029480;28;20534;-59
2022/01/21 04:53:24;;;;;;;9.27;0.90;;;1.80;99.90;;;;;;5028149;28;20597;-59
2022/01/21 04:55:49;;;;;;;14.38;1.42;;;1.70;99.90;;;;;;5029285;28;20048;-62
2022/01/21 04:58:15;;;;;;;8.53;0.90;;;1.70;99.90;;;;;;5029098;28;20489;-59
2022/01/21 05:00:41;;;;;;;6.23;1.03;;;1.70;99.90;;;;;;5028821;28;20033;-58
2022/01/21 05:03:07;;;;;;;4.90;0.80;;;1.70;99.90;;;;;;5029189;28;20410;-58
2022/01/21 05:05:33;;;;;;;7.40;0.80;;;1.60;99.90;;;;;;5029147;28;20044;-59
2022/01/21 05:08:03;;;;;;;9.38;1.75;;;1.60;99.90;;;;;;5028808;28;20052;-59
2022/01/21 05:10:29;;;;;;;6.75;1.42;;;1.60;99.90;;;;;;5029154;28;20034;-60
2022/01/21 05:12:54;;;;;;;8.17;0.83;;;1.60;99.90;;;;;;5029059;28;20179;-59
2022/01/21 05:15:31;;;;;;;11.37;0.93;;;1.60;99.90;;;;;;5028644;28;20041;-58
2022/01/21 05:17:56;;;;;;;7.43;0.93;;;1.50;99.90;;;;;;5029292;28;20643;-59
2022/01/21 05:20:22;;;;;;;9.20;1.27;;;1.60;99.90;;;;;;5029002;28;20048;-59
2022/01/21 05:22:48;;;;;;;11.50;0.93;;;1.60;99.90;;;;;;5028903;28;20041;-58
2022/01/21 05:25:18;;;;;;;10.43;0.77;;;1.50;99.90;;;;;;5044856;28;20608;-58
2022/01/21 05:27:45;;;;;;;18.42;2.03;;;1.50;99.90;;;;;;5048101;28;20045;-60
2022/01/21 05:30:11;;;;;;;7.57;1.35;;;1.50;99.90;;;;;;5048498;28;20048;-60
2022/01/21 05:32:37;;;;;;;5.45;0.77;;;1.50;99.90;;;;;;5048929;28;20033;-59
2022/01/21 05:35:03;;;;;;;7.07;1.10;;;1.50;99.90;;;;;;5048495;28;20418;-60
2022/01/21 05:37:29;;;;;;;5.78;0.82;;;1.50;99.90;;;;;;5047493;28;20037;-60
2022/01/21 05:39:54;;;;;;;12.43;1.07;;;1.50;99.90;;;;;;5048443;28;20083;-58
2022/01/21 05:42:21;;;;;;;8.68;0.88;;;1.50;99.90;;;;;;5048252;28;20041;-60
2022/01/21 05:47:12;;;;;;;14.13;1.67;;;1.40;99.90;;;;;;5048890;28;20033;-61
2022/01/21 05:49:38;;;;;;;6.27;1.00;;;1.30;99.90;;;;;;5048330;28;20045;-60
2022/01/21 05:52:17;;;;;;;8.52;0.93;;;1.30;99.90;;;;;;5048989;28;20029;-57
2022/01/21 05:54:45;;;;;;;9.30;1.13;;;1.30;99.90;;;;;;5048402;28;20033;-60
2022/01/21 05:57:13;;;;;;;12.07;1.30;;;1.30;99.90;;;;;;5048458;28;20045;-60
2022/01/21 05:59:39;;;;;;;7.43;1.20;;;1.30;99.90;;;;;;5048211;28;20608;-60
2022/01/21 06:02:06;;;;;;;6.20;0.77;;;1.30;99.90;;;;;;5048392;28;20036;-60
2022/01/21 06:04:36;;;;;;;10.65;1.85;;;1.30;99.90;;;;;;5048366;28;20129;-60
2022/01/21 06:07:04;;;;;;;8.88;1.20;;;1.30;99.90;;;;;;5048217;28;20110;-60
2022/01/21 06:09:30;;;;;;;8.40;0.70;;;1.30;99.90;;;;;;5048120;28;20041;-60
2022/01/21 06:11:56;;;;;;;10.03;0.90;;;1.40;99.90;;;;;;5047274;28;20048;-60
2022/01/21 06:14:24;;;;;;;8.10;0.73;;;1.30;99.90;;;;;;5047404;28;20050;-60
2022/01/21 06:16:50;;;;;;;6.40;0.93;;;1.30;99.90;;;;;;5048031;28;20734;-59
2022/01/21 06:19:15;;;;;;;5.70;0.90;;;1.40;99.90;;;;;;5048597;28;20125;-61
2022/01/21 06:21:41;;;;;;;9.77;1.23;;;1.30;99.90;;;;;;5048205;28;20076;-60
2022/01/21 06:24:06;;;;;;;6.77;1.00;;;1.30;99.90;;;;;;5047959;28;20148;-59
2022/01/21 06:26:32;;;;;;;12.33;1.03;;;1.30;99.90;;;;;;5048283;28;20749;-60
2022/01/21 06:28:57;;;;;;;10.13;1.53;;;1.30;99.90;;;;;;5047981;28;20409;-60
2022/01/21 06:31:23;;;;;;;11.20;0.73;;;1.30;99.90;;;;;;5048310;28;20433;-59
2022/01/21 06:33:49;;;;;;;3.23;0.80;;;1.40;99.90;;;;;;5046718;28;20405;-61
2022/01/21 06:36:14;;;;;;;9.17;1.20;;;1.40;99.90;;;;;;5047921;28;20037;-60
2022/01/21 06:38:40;;;;;;;15.13;0.93;;;1.40;99.90;;;;;;5048973;28;20041;-60
2022/01/21 06:41:06;;;;;;;10.90;0.73;;;1.40;99.90;;;;;;5051805;28;20041;-60
2022/01/21 06:43:31;;;;;;;12.95;1.25;;;1.40;99.90;;;;;;5067040;28;20110;-60
2022/01/21 06:45:57;;;;;;;14.53;1.00;;;1.50;99.90;;;;;;5067034;28;20133;-60
2022/01/21 06:48:25;;;;;;;7.33;1.73;;;1.50;99.90;;;;;;5051341;28;20378;-60
2022/01/21 06:50:50;;;;;;;11.20;0.90;;;1.50;99.90;;;;;;5050271;28;20041;-60
2022/01/21 06:53:16;;;;;;;12.57;1.23;;;1.50;99.90;;;;;;5051262;28;20508;-60
2022/01/21 06:55:42;;;;;;;9.90;1.10;;;1.50;99.90;;;;;;5051178;28;20033;-60
2022/01/21 06:58:07;;;;;;;13.30;1.17;;;1.50;99.90;;;;;;5051822;28;20037;-60
2022/01/21 07:00:33;;;;;;;6.70;1.60;;;1.40;99.90;;;;;;5051196;28;20075;-60
2022/01/21 07:02:59;;;;;;;10.57;2.38;;;1.50;99.90;;;;;;5050534;28;20098;-60
2022/01/21 07:05:25;;;;;;;7.97;1.60;;;1.50;99.90;;;;;;5050963;28;20486;-61
2022/01/21 07:07:52;;;;;;;11.63;0.77;;;1.50;99.90;;;;;;5050866;28;20044;-60
2022/01/21 07:10:18;;;;;;;12.50;1.02;;;1.50;99.90;;;;;;5051152;28;20041;-59
2022/01/21 07:12:44;;;;;;;13.80;2.45;;;1.50;99.90;;;;;;5051410;28;20033;-60
2022/01/21 07:15:11;;;;;;;;;;;1.50;99.90;;;;;;5051794;28;20079;-61
2022/01/21 07:17:37;;;;;;;10.27;0.60;;;1.50;99.90;;;;;;5051462;28;19916;-60
2022/01/21 07:20:04;;;;;;;9.35;1.77;;;1.40;99.90;;;;;;5051027;28;20657;-60
2022/01/21 07:22:31;;;;;;;8.45;0.90;;;1.40;99.90;;;;;;5049449;28;20033;-59
2022/01/21 07:24:57;;;;;;;10.07;0.82;;;1.40;99.90;;;;;;5036862;28;20320;-59
2022/01/21 07:27:23;;;;;;;;;;;1.40;99.90;;;;;;5036492;28;20037;-58
2022/01/21 07:29:49;;;;;;;5.82;0.77;;;1.50;99.90;;;;;;5050643;28;20407;-60
2022/01/21 07:32:15;;;;;;;12.18;1.30;;;1.50;99.90;;;;;;5050574;28;20123;-60
2022/01/21 07:34:40;;;;;;;9.50;1.20;;;1.50;99.90;;;;;;5030696;28;20080;-60
2022/01/21 07:37:06;;;;;;;6.90;1.03;;;1.60;99.90;;;;;;5043394;28;20048;-60
2022/01/21 07:39:32;;;;;;;19.23;1.23;;;1.60;99.90;;;;;;5050053;28;20068;-59
2022/01/21 07:41:57;;;;;;;8.33;0.87;;;1.60;99.90;;;;;;5050085;28;20074;-60
2022/01/21 07:44:23;;;;;;;7.45;0.80;;;1.60;99.90;;;;;;5047702;28;20039;-61
2022/01/21 07:46:49;;;;;;;9.57;1.00;;;1.60;99.90;;;;;;5052448;28;20041;-61
2022/01/21 07:49:15;;;;;;;6.40;0.60;;;1.60;99.90;;;;;;5044845;28;20072;-61
2022/01/21 07:51:42;;;;;;;13.90;0.80;;;1.60;99.90;;;;;;5030148;28;20045;-61
2022/01/21 07:54:08;;;;;;;13.38;0.82;;;1.60;99.90;;;;;;5047304;28;20102;-60
2022/01/21 07:56:34;;;;;;;11.00;1.38;;;1.60;99.90;;;;;;5049227;28;20111;-61
2022/01/21 07:59:05;;;;;;;10.35;0.70;;;1.60;99.90;;;;;;5049900;28;20116;-61
2022/01/21 08:01:31;;;;;;;12.60;2.42;;;1.70;99.90;;;;;;5050631;28;20118;-61
2022/01/21 08:03:56;;;;;;;8.15;1.17;;;1.70;99.90;;;;;;5049199;28;20490;-61
2022/01/21 08:06:23;;;;;;;9.37;1.00;;;1.70;99.90;;;;;;5047774;28;20049;-60
2022/01/21 08:08:48;;;;;;;5.18;0.80;;;1.80;99.90;;;;;;5049160;28;20279;-61
2022/01/21 08:11:14;;;;;;;8.85;1.98;;;1.90;99.90;;;;;;5049482;28;20033;-60
2022/01/21 08:13:40;;;;;;;9.70;0.93;;;1.90;99.90;;;;;;5048756;28;20041;-62
2022/01/21 08:16:05;;;;;;;12.30;1.50;;;2.00;99.90;;;;;;5049220;28;20525;-60
2022/01/21 08:18:31;;;;;;;6.00;1.37;;;2.00;99.90;;;;;;5049171;28;20037;-59
2022/01/21 08:20:57;;;;;;;12.80;1.20;;;2.00;99.90;;;;;;5049271;28;20037;-61
2022/01/21 08:23:23;;;;;;;15.97;1.70;;;1.90;99.90;;;;;;5049411;28;20040;-61
2022/01/21 08:25:48;;;;;;;12.33;0.70;;;1.90;99.90;;;;;;5064009;28;20280;-61
2022/01/21 08:28:14;;;;;;;8.57;1.23;;;2.00;99.90;;;;;;5047511;28;20664;-61
2022/01/21 08:30:40;;;;;;;18.23;1.17;;;2.00;99.90;;;;;;5045153;28;20030;-62
2022/01/21 08:33:05;;;;;;;10.98;1.13;;;2.20;99.90;;;;;;5049565;28;20444;-62
2022/01/21 08:35:34;;;;;;;14.75;2.05;;;2.60;99.90;;;;;;5049446;28;20545;-62
2022/01/21 08:38:00;;;;;;;7.57;1.20;;;3.20;99.90;;;;;;5031484;28;20509;-61
2022/01/21 08:40:26;;;;;;;7.53;1.02;;;3.70;99.90;;;;;;5041545;28;20041;-61
2022/01/21 08:42:52;;;;;;;6.97;0.73;;;4.30;99.90;;;;;;5049807;28;20036;-61
2022/01/21 08:45:19;;;;;;;7.03;0.73;;;4.40;99.90;;;;;;5049242;28;20063;-61
2022/01/21 08:47:44;;;;;;;5.80;0.77;;;4.40;99.90;;;;;;5048820;28;20402;-61
2022/01/21 08:50:13;;;;;;;7.93;1.17;;;4.40;99.90;;;;;;5048763;28;20053;-62
2022/01/21 08:52:41;;;;;;;12.95;1.25;;;4.60;99.90;;;;;;5048725;28;20394;-61
2022/01/21 08:55:12;;;;;;;6.20;0.95;;;5.10;99.90;;;;;;5045141;28;20062;-62
2022/01/21 08:57:41;;;;;;;4.90;0.60;;;5.70;99.90;;;;;;5032223;28;20041;-62
2022/01/21 09:00:09;;;;;;;9.85;1.23;;;6.30;99.90;;;;;;5049018;28;20053;-62
2022/01/21 09:02:35;;;;;;;10.27;1.67;;;6.90;99.90;;;;;;5054259;28;20410;-62
2022/01/21 09:05:01;;;;;;;15.82;1.15;;;7.60;99.90;;;;;;5047052;28;20051;-62
2022/01/21 09:07:26;;;;;;;11.10;1.00;;;8.20;99.90;;;;;;5046517;28;20119;-62
2022/01/21 09:09:52;;;;;;;14.97;1.03;;;8.70;99.90;;;;;;5058520;28;20047;-62
2022/01/21 09:12:17;;;;;;;10.20;1.40;;;9.50;99.90;;;;;;5066311;28;20047;-62
2022/01/21 09:14:43;;;;;;;9.60;1.20;;;9.90;99.90;;;;;;5055222;28;20612;-62
2022/01/21 09:17:09;;;;;;;9.43;1.13;;;9.70;99.90;;;;;;5064033;28;20041;-61
2022/01/21 09:19:34;;;;;;;13.83;1.70;;;9.10;99.50;;;;;;5066507;28;20123;-62
2022/01/21 09:22:02;;;;;;;15.40;2.20;;;8.50;99.90;;;;;;5065809;28;20063;-62
2022/01/21 09:24:29;;;;;;;8.90;0.88;;;8.00;99.90;;;;;;5057366;28;20505;-62
2022/01/21 09:26:55;;;;;;;18.17;2.05;;;7.70;99.90;;;;;;5059812;28;20505;-62
2022/01/21 09:29:20;;;;;;;6.67;1.20;;;7.20;99.90;;;;;;5061246;28;20131;-62
2022/01/21 09:31:46;;;;;;;7.85;1.17;;;6.50;99.90;;;;;;5062514;28;20381;-61
2022/01/21 09:34:12;;;;;;;10.32;1.80;;;6.00;99.90;;;;;;5063135;28;20060;-61
2022/01/21 09:36:38;;;;;;;15.98;1.38;;;5.50;99.90;;;;;;5062860;28;20043;-61
2022/01/21 09:39:05;;;;;;;11.63;1.10;;;5.10;99.90;;;;;;5062597;28;20059;-60
2022/01/21 09:41:31;;;;;;;10.50;1.75;;;4.80;99.90;;;;;;5056343;28;20592;-60
2022/01/21 09:43:58;;;;;;;9.32;1.60;;;4.60;99.90;;;;;;5049944;28;20045;-60
2022/01/21 09:46:31;;;;;;;8.98;0.93;;;4.40;99.90;;;;;;5053588;28;20578;-60
2022/01/21 09:49:07;;;;;;;9.35;1.50;;;4.30;99.90;;;;;;5053183;28;20565;-60
2022/01/21 09:51:37;;;;;;;12.07;1.60;;;4.30;99.90;;;;;;5056022;28;20048;-59
2022/01/21 09:54:06;;;;;;;9.95;1.23;;;4.30;99.90;;;;;;5056087;28;20116;-60
2022/01/21 09:56:37;;;;;;;24.27;1.60;;;4.30;99.90;;;;;;5054626;28;20101;-60
2022/01/21 09:59:03;;;;;;;14.85;2.08;;;4.20;99.90;;;;;;5056874;28;20041;-60
2022/01/21 10:01:29;;;;;;;15.20;1.63;;;4.30;99.90;;;;;;5053029;28;20111;-59
2022/01/21 10:03:55;;;;;;;12.43;1.95;;;4.30;99.90;;;;;;5060194;28;20722;-60
2022/01/21 10:06:26;;;;;;;13.27;1.55;;;4.40;99.90;;;;;;5061624;28;20048;-58
2022/01/21 10:08:55;;;;;;;18.27;2.13;;;4.50;99.90;;;;;;5055239;28;20041;-59
2022/01/21 10:11:21;;;;;;;11.55;1.40;;;4.90;99.90;;;;;;5056970;28;20067;-61
2022/01/21 10:13:48;;;;;;;19.80;2.42;;;5.70;99.90;;;;;;5058827;28;20125;-56
2022/01/21 10:16:14;;;;;;;12.68;1.30;;;6.30;99.90;;;;;;5068861;28;20037;-60
2022/01/21 10:19:01;;;;;;;7.70;1.35;;;6.60;99.90;;;;;;5068620;28;20033;-57
2022/01/21 10:21:35;;;;;;;14.77;2.95;;;6.60;99.90;;;;;;5063432;28;20116;-59
2022/01/21 10:24:06;;;;;;;16.00;1.85;;;6.50;99.90;;;;;;5062234;28;20040;-58
2022/01/21 10:26:32;;;;;;;13.63;1.92;;;6.60;99.90;;;;;;5063922;28;20033;-60
2022/01/21 10:28:58;;;;;;;13.03;2.03;;;6.60;99.90;;;;;;5064885;28;20548;-59
2022/01/21 10:31:27;;;;;;;15.85;2.05;;;6.50;99.90;;;;;;5068885;28;20036;-60
2022/01/21 10:34:04;;;;;;;17.17;1.88;;;6.40;99.90;;;;;;5062945;28;20036;-61
2022/01/21 10:36:34;;;;;;;16.55;1.67;;;6.50;99.90;;;;;;5065828;28;20930;-61
2022/01/21 10:39:18;;;;;;;18.77;1.98;;;6.70;99.90;;;;;;5058019;28;20105;-61
2022/01/21 10:41:49;;;;;;;10.68;1.35;;;6.70;99.90;;;;;;5061020;28;20047;-58
2022/01/21 10:44:17;;;;;;;10.18;1.45;;;6.70;99.90;;;;;;5065866;28;20055;-59
2022/01/21 10:46:59;;;;;;;7.80;1.10;;;6.60;99.90;;;;;;5063157;28;20685;-61
2022/01/21 10:49:25;;;;;;;10.68;1.27;;;6.50;99.90;;;;;;5064810;28;20400;-61
2022/01/21 10:51:51;;;;;;;15.07;1.83;;;6.40;99.90;;;;;;5045634;28;20037;-61
2022/01/21 10:54:21;;;;;;;8.63;0.80;;;6.20;99.90;;;;;;5064313;28;20029;-61
2022/01/21 10:57:05;;;;;;;11.57;1.38;;;6.10;99.90;;;;;;5061610;28;20052;-61
2022/01/21 10:59:48;;;;;;;10.80;1.35;;;6.00;99.90;;;;;;5064253;28;20044;-62
2022/01/21 11:02:15;;;;;;;11.15;1.02;;;5.90;99.90;;;;;;5060648;28;20056;-60
2022/01/21 11:04:44;;;;;;;13.40;1.25;;;5.90;99.90;;;;;;5070720;28;20107;-61
2022/01/21 11:07:13;;;;;;;9.15;1.23;;;5.80;99.90;;;;;;5060858;28;20489;-61
2022/01/21 11:09:38;;;;;;;6.10;1.40;;;5.80;99.90;;;;;;5065604;28;20045;-61
2022/01/21 11:12:12;;;;;;;7.67;1.03;;;5.80;99.90;;;;;;5065862;28;20128;-61
2022/01/21 11:15:00;;;;;;;18.63;1.73;;;5.80;99.90;;;;;;5067701;28;20040;-61
2022/01/21 11:17:26;;;;;;;10.45;1.35;;;5.80;99.90;;;;;;5066697;28;20071;-61
2022/01/21 11:20:07;;;;;;;7.25;0.80;;;5.80;99.90;;;;;;5064749;28;20409;-61
2022/01/21 11:22:53;;;;;;;13.85;2.05;;;5.90;99.90;;;;;;5064496;28;20458;-61
2022/01/21 11:25:39;;;;;;;16.55;2.28;;;5.90;99.90;;;;;;5066869;28;20114;-62
2022/01/21 11:28:04;;;;;;;15.18;2.53;;;5.90;99.90;;;;;;5069832;28;20151;-60
2022/01/21 11:30:30;;;;;;;11.77;2.27;;;5.90;99.90;;;;;;5064797;28;20569;-62
2022/01/21 11:32:55;;;;;;;19.43;2.13;;;5.90;99.90;;;;;;5068644;28;20406;-62
2022/01/21 11:35:21;;;;;;;16.37;2.17;;;5.90;99.90;;;;;;5064114;28;20145;-60
2022/01/21 11:37:48;;;;;;;8.57;1.45;;;5.90;99.90;;;;;;5063562;28;20416;-61
2022/01/21 11:40:14;;;;;;;11.10;1.27;;;5.90;99.90;;;;;;5058449;28;20048;-58
2022/01/21 11:42:41;;;;;;;9.73;1.40;;;5.90;99.90;;;;;;5062938;28;20036;-61
2022/01/21 11:45:19;;;;;;;10.65;1.52;;;5.90;99.90;;;;;;5064026;28;20733;-61
2022/01/21 11:48:11;;;;;;;11.70;2.05;;;5.80;99.90;;;;;;5058432;28;20041;-62
2022/01/21 11:50:36;;;;;;;15.60;1.80;;;5.80;99.90;;;;;;5054996;28;20084;-60
2022/01/21 11:53:02;;;;;;;15.45;1.42;;;5.80;99.90;;;;;;5064394;28;20060;-62
2022/01/21 11:55:33;;;;;;;7.97;1.37;;;5.80;99.90;;;;;;5060729;28;20041;-62
2022/01/21 11:58:17;;;;;;;14.35;2.17;;;5.90;99.90;;;;;;5053961;28;20033;-61
2022/01/21 12:00:43;;;;;;;9.52;1.98;;;5.90;99.90;;;;;;5052801;28;20047;-62
2022/01/21 12:03:09;;;;;;;11.77;2.78;;;6.00;99.90;;;;;;5059332;28;20047;-61
2022/01/21 12:05:36;;;;;;;16.10;2.88;;;6.00;99.90;;;;;;5064836;28;20128;-62
2022/01/21 12:08:05;;;;;;;15.40;2.35;;;6.00;99.90;;;;;;5054040;28;20148;-62
2022/01/21 12:10:32;;;;;;;14.73;2.85;;;6.00;99.90;;;;;;5048177;28;20044;-63
2022/01/21 12:13:12;;;;;;;18.92;2.58;;;6.00;99.90;;;;;;5046826;28;20136;-62
2022/01/21 12:15:45;;;;;;;21.08;4.43;;;6.00;99.90;;;;;;5058098;28;20047;-62
2022/01/21 12:20:42;;;;;;;15.05;2.30;;;6.10;99.90;;;;;;5054180;28;20485;-62
2022/01/21 12:23:12;;;;;;;19.85;3.63;;;6.10;99.90;;;;;;5056058;28;20098;-62
2022/01/21 12:26:09;;;;;;;13.40;2.75;;;6.10;99.90;;;;;;5052915;28;20549;-59
2022/01/21 12:28:43;;;;;;;16.52;3.20;;;6.10;99.90;;;;;;5052125;28;20037;-61
2022/01/21 12:31:11;;;;;;;13.85;3.63;;;6.10;99.90;;;;;;5057661;28;20569;-60
2022/01/21 12:34:00;;;;;;;17.45;2.53;;;6.10;99.90;;;;;;5053472;28;20391;-62
2022/01/21 12:36:31;;;;;;;10.50;1.85;;;6.10;99.90;;;;;;5051432;28;20044;-61
2022/01/21 12:41:32;;;;;;;10.85;2.00;;;6.20;99.90;;;;;;5056542;28;20135;-62
2022/01/21 12:43:59;;;;;;;12.63;2.53;;;6.20;99.90;;;;;;5048976;28;20043;-61
2022/01/21 12:46:41;;;;;;;26.20;2.08;;;6.20;99.90;;;;;;5047030;28;20036;-61
2022/01/21 12:49:29;;;;;;;17.35;1.95;;;6.30;99.90;;;;;;5052173;28;20040;-61
2022/01/21 12:57:30;;;;;;;12.50;1.58;;;6.30;99.90;;;;;;5054821;28;20044;-60
2022/01/21 12:59:58;;;;;;;10.10;1.55;;;6.40;99.90;;;;;;5058043;28;20040;-62
2022/01/21 13:02:25;;;;;;;16.02;1.17;;;6.40;99.90;;;;;;5053942;28;20041;-61
2022/01/21 13:05:12;;;;;;;20.30;2.15;;;6.40;99.90;;;;;;5059245;28;20063;-60
2022/01/21 13:07:50;;;;;;;6.57;1.13;;;6.40;99.90;;;;;;5038263;28;20082;-60
2022/01/21 13:10:24;;;;;;;10.70;1.33;;;6.40;99.90;;;;;;5054757;28;20203;-60
2022/01/21 13:13:13;;;;;;;9.13;1.02;;;6.50;99.90;;;;;;5049668;28;20120;-62
2022/01/21 13:15:55;;;;;;;8.07;1.10;;;6.50;99.90;;;;;;5061926;28;20035;-61
2022/01/21 13:18:31;;;;;;;16.25;1.30;;;6.50;99.90;;;;;;5059097;28;20401;-62
2022/01/21 13:21:04;;;;;;;8.98;1.27;;;6.60;99.90;;;;;;5046922;28;20494;-62
2022/01/21 13:26:39;;;;;;;9.38;1.08;;;6.60;99.90;;;;;;5035137;28;20076;-62
2022/01/21 13:29:07;;;;;;;7.78;0.50;;;6.60;99.90;;;;;;5036132;28;20053;-61
2022/01/21 13:31:52;;;;;;;6.75;0.82;;;6.60;99.90;;;;;;5035412;28;20029;-61
2022/01/21 13:34:19;;;;;;;7.78;0.90;;;6.60;99.90;;;;;;5037848;28;20514;-62
2022/01/21 13:36:52;;;;;;;10.93;0.95;;;6.60;99.90;;;;;;5038987;28;20560;-62
2022/01/21 13:39:21;;;;;;;6.28;0.80;;;6.60;99.90;;;;;;5039465;28;20103;-62
2022/01/21 13:41:57;;;;;;;10.48;1.15;;;6.60;99.90;;;;;;5014857;28;20924;-62
2022/01/21 13:44:32;;;;;;;8.32;0.98;;;6.60;99.90;;;;;;5017692;28;20518;-62
2022/01/21 13:47:00;;;;;;;7.97;1.20;;;6.60;99.90;;;;;;5034095;28;20086;-62
2022/01/21 13:49:27;;;;;;;9.48;1.30;;;6.60;99.90;;;;;;5039007;28;20044;-62
2022/01/21 13:51:58;;;;;;;17.42;1.52;;;6.60;99.90;;;;;;5037051;28;20072;-62
2022/01/21 13:54:36;;;;;;;16.90;1.90;;;6.60;99.90;;;;;;5042459;28;20099;-62